Time;durP1;ratioP1;P1;durP2;ratioP2;P2;SDS_P1;SDS_P2;PMS_P1;PMS_P2;Temp;Humidity;BMP_temperature;BMP_pressure;BME280_temperature;BME280_humidity;BME280_pressure;Samples;Min_cycle;Max_cycle;Signal;HPM_P1;HPM_P2
2023/07/16 00:02:08;;;;;;;8.00;6.25;;;24.20;98.60;;;;;;5025569;28;20236;-71
2023/07/16 00:04:59;;;;;;;8.45;6.18;;;24.20;98.20;;;;;;5024013;28;20232;-71
2023/07/16 00:07:48;;;;;;;7.50;6.10;;;24.20;98.40;;;;;;5021197;28;20316;-72
2023/07/16 00:10:37;;;;;;;7.13;6.43;;;24.30;99.90;;;;;;5006149;28;20247;-72
2023/07/16 00:13:26;;;;;;;8.70;5.93;;;24.30;99.90;;;;;;5006312;28;20308;-74
2023/07/16 00:16:19;;;;;;;7.90;6.43;;;24.20;99.30;;;;;;5024767;28;20703;-72
2023/07/16 00:19:08;;;;;;;7.07;6.05;;;24.10;98.90;;;;;;5004808;28;20328;-72
2023/07/16 00:21:58;;;;;;;7.50;6.57;;;24.00;98.60;;;;;;5003894;28;20313;-71
2023/07/16 00:24:47;;;;;;;11.23;6.40;;;24.00;98.50;;;;;;5008984;28;20232;-71
2023/07/16 00:27:35;;;;;;;8.55;6.20;;;24.00;98.80;;;;;;5012977;28;20357;-72
2023/07/16 00:30:24;;;;;;;9.05;6.15;;;23.90;98.80;;;;;;5021457;28;20217;-72
2023/07/16 00:33:16;;;;;;;7.85;6.40;;;24.00;99.70;;;;;;5020640;28;20271;-73
2023/07/16 00:36:04;;;;;;;6.90;6.28;;;23.90;99.20;;;;;;5017551;28;20222;-71
2023/07/16 00:38:55;;;;;;;7.75;6.90;;;23.90;99.50;;;;;;5012801;28;20233;-72
2023/07/16 00:41:44;;;;;;;8.30;7.30;;;23.70;99.90;;;;;;5016080;28;20719;-72
2023/07/16 00:44:33;;;;;;;7.75;7.07;;;23.60;99.90;;;;;;5014916;28;21013;-70
2023/07/16 00:47:26;;;;;;;9.45;7.85;;;23.70;99.90;;;;;;5013763;28;20221;-73
2023/07/16 00:50:16;;;;;;;10.13;7.25;;;23.50;99.90;;;;;;5005062;28;20787;-72
2023/07/16 00:53:04;;;;;;;8.90;7.57;;;23.50;99.90;;;;;;5029511;28;20325;-71
2023/07/16 00:55:55;;;;;;;9.60;6.90;;;23.40;99.90;;;;;;5012763;28;20276;-73
2023/07/16 00:58:43;;;;;;;8.88;7.32;;;23.30;99.90;;;;;;5028720;28;20262;-72
2023/07/16 01:01:32;;;;;;;8.27;7.32;;;23.40;99.90;;;;;;5002181;28;20360;-73
2023/07/16 01:04:21;;;;;;;8.57;7.38;;;23.30;99.90;;;;;;5014262;28;20575;-71
2023/07/16 01:07:15;;;;;;;7.45;6.75;;;23.30;99.90;;;;;;5005747;28;20233;-72
2023/07/16 01:10:05;;;;;;;9.07;7.53;;;23.20;99.90;;;;;;5018150;28;20234;-73
2023/07/16 01:12:56;;;;;;;8.43;7.50;;;23.20;99.90;;;;;;5022706;28;20235;-72
2023/07/16 01:15:49;;;;;;;7.80;7.10;;;23.10;99.90;;;;;;5014828;28;20221;-71
2023/07/16 01:18:38;;;;;;;11.02;7.82;;;23.00;99.90;;;;;;5012203;28;20440;-72
2023/07/16 01:21:36;;;;;;;11.05;7.43;;;23.10;99.90;;;;;;5019333;28;20228;-73
2023/07/16 01:24:53;;;;;;;8.95;7.32;;;23.10;99.90;;;;;;5006842;28;20985;-72
2023/07/16 01:28:07;;;;;;;9.05;8.15;;;23.00;99.90;;;;;;4987511;28;20226;-74
2023/07/16 01:30:59;;;;;;;8.63;7.82;;;22.80;99.90;;;;;;5010755;28;20744;-73
2023/07/16 01:33:49;;;;;;;9.48;8.20;;;22.90;99.90;;;;;;4993467;28;20257;-72
2023/07/16 01:36:39;;;;;;;10.10;7.70;;;22.90;99.90;;;;;;5014193;28;20225;-72
2023/07/16 01:39:28;;;;;;;10.07;8.20;;;22.80;99.90;;;;;;5005608;28;20225;-74
2023/07/16 01:42:17;;;;;;;10.50;7.97;;;22.80;99.90;;;;;;5001635;28;20226;-73
2023/07/16 01:45:07;;;;;;;10.68;8.13;;;22.80;99.90;;;;;;5008344;28;20226;-73
2023/07/16 01:48:06;;;;;;;8.77;7.90;;;22.70;99.90;;;;;;5015972;28;20232;-71
2023/07/16 01:50:55;;;;;;;8.77;7.95;;;22.70;99.90;;;;;;5019357;28;20229;-72
2023/07/16 01:53:45;;;;;;;10.45;8.40;;;22.60;99.90;;;;;;5023712;28;20270;-70
2023/07/16 01:56:34;;;;;;;9.15;8.25;;;22.50;99.90;;;;;;5026246;28;20224;-73
2023/07/16 01:59:23;;;;;;;9.00;8.10;;;22.50;99.90;;;;;;5022007;28;20221;-72
2023/07/16 02:02:15;;;;;;;9.75;8.60;;;22.50;99.90;;;;;;5012893;28;20237;-72
2023/07/16 02:05:07;;;;;;;9.45;7.75;;;22.50;99.90;;;;;;5006795;28;20780;-72
2023/07/16 02:07:56;;;;;;;10.30;8.40;;;22.30;99.90;;;;;;5021333;28;20780;-73
2023/07/16 02:10:45;;;;;;;8.93;8.10;;;22.30;99.90;;;;;;5016768;28;20230;-73
2023/07/16 02:13:33;;;;;;;8.80;7.90;;;22.30;99.90;;;;;;5015634;28;20256;-74
2023/07/16 02:16:22;;;;;;;10.13;8.70;;;22.40;99.90;;;;;;5019926;28;20921;-73
2023/07/16 02:19:11;;;;;;;9.38;8.55;;;22.20;99.90;;;;;;5020662;28;20237;-71
2023/07/16 02:22:01;;;;;;;12.40;8.30;;;22.20;99.90;;;;;;5002377;28;20226;-74
2023/07/16 02:24:50;;;;;;;9.25;8.27;;;22.00;99.90;;;;;;5017799;28;20233;-73
2023/07/16 02:27:39;;;;;;;11.60;8.25;;;22.00;99.90;;;;;;5009050;28;20234;-72
2023/07/16 02:30:28;;;;;;;10.02;9.02;;;21.80;99.90;;;;;;5017210;28;20268;-74
2023/07/16 02:33:17;;;;;;;10.02;8.63;;;21.90;99.90;;;;;;5017832;28;20237;-73
2023/07/16 02:36:06;;;;;;;9.60;8.60;;;22.00;99.90;;;;;;5024293;28;20229;-72
2023/07/16 02:38:57;;;;;;;8.95;8.05;;;21.90;99.90;;;;;;5022716;28;20236;-72
2023/07/16 02:41:46;;;;;;;9.55;8.55;;;22.00;99.90;;;;;;5014279;28;20241;-72
2023/07/16 02:44:38;;;;;;;9.63;8.63;;;21.80;99.90;;;;;;5006158;28;20308;-73
2023/07/16 02:47:27;;;;;;;10.10;8.77;;;21.80;99.90;;;;;;5021265;28;20228;-73
2023/07/16 02:50:16;;;;;;;12.85;8.65;;;21.70;99.90;;;;;;5017118;28;21553;-72
2023/07/16 02:53:05;;;;;;;11.20;8.45;;;21.70;99.90;;;;;;5005154;28;20227;-73
2023/07/16 02:55:55;;;;;;;10.63;8.40;;;21.70;99.90;;;;;;5018577;28;20312;-72
2023/07/16 02:58:44;;;;;;;11.48;9.05;;;21.80;99.90;;;;;;5030022;28;20224;-73
2023/07/16 03:01:33;;;;;;;9.65;8.70;;;21.70;99.90;;;;;;4996743;28;20225;-72
2023/07/16 03:04:22;;;;;;;10.25;8.68;;;21.70;99.90;;;;;;5027587;28;20335;-72
2023/07/16 03:07:11;;;;;;;9.45;8.55;;;21.70;99.90;;;;;;5015306;28;20229;-72
2023/07/16 03:10:00;;;;;;;9.95;9.02;;;21.70;99.90;;;;;;5012539;28;20218;-71
2023/07/16 03:12:51;;;;;;;9.70;8.80;;;21.70;99.90;;;;;;5024750;28;20286;-73
2023/07/16 03:15:40;;;;;;;10.20;8.73;;;21.70;99.90;;;;;;5018902;28;20240;-72
2023/07/16 03:18:30;;;;;;;10.52;9.52;;;21.80;99.90;;;;;;5008482;28;20279;-73
2023/07/16 03:21:19;;;;;;;11.40;8.75;;;21.70;99.90;;;;;;5019333;28;20225;-71
2023/07/16 03:24:12;;;;;;;10.02;9.05;;;21.80;99.90;;;;;;5007502;28;20291;-71
2023/07/16 03:27:01;;;;;;;10.10;9.10;;;21.70;99.90;;;;;;5010113;28;20262;-72
2023/07/16 03:30:10;;;;;;;10.02;8.88;;;21.70;99.90;;;;;;5005326;28;20709;-71
2023/07/16 03:32:59;;;;;;;10.52;9.43;;;21.80;99.90;;;;;;5006033;28;20244;-70
2023/07/16 03:35:49;;;;;;;9.75;8.77;;;21.90;99.90;;;;;;5018712;28;20226;-70
2023/07/16 03:38:40;;;;;;;13.48;9.30;;;21.80;99.90;;;;;;4998180;28;20230;-72
2023/07/16 03:41:29;;;;;;;11.05;8.65;;;21.80;99.90;;;;;;5022504;28;20230;-72
2023/07/16 03:44:17;;;;;;;11.13;9.00;;;21.90;99.90;;;;;;5022492;28;20684;-71
2023/07/16 03:47:08;;;;;;;10.18;9.00;;;22.10;99.90;;;;;;5007538;28;20332;-71
2023/07/16 03:49:57;;;;;;;10.98;9.05;;;22.20;99.90;;;;;;5010773;28;20607;-72
2023/07/16 03:52:46;;;;;;;11.85;9.13;;;22.30;99.90;;;;;;5022895;28;20802;-72
2023/07/16 03:55:36;;;;;;;9.95;8.95;;;22.20;99.90;;;;;;5018882;28;20697;-71
2023/07/16 03:58:27;;;;;;;10.50;8.88;;;22.30;99.90;;;;;;5003509;28;20592;-69
2023/07/16 04:01:16;;;;;;;12.32;8.55;;;22.20;99.90;;;;;;5012071;28;20232;-73
2023/07/16 04:04:06;;;;;;;10.25;9.23;;;22.20;99.90;;;;;;5027755;28;20214;-72
2023/07/16 04:06:56;;;;;;;10.30;8.68;;;22.40;99.90;;;;;;5013472;28;20611;-71
2023/07/16 04:09:45;;;;;;;9.95;8.68;;;22.50;99.90;;;;;;5018232;28;20225;-72
2023/07/16 04:12:33;;;;;;;10.15;8.98;;;22.60;99.90;;;;;;5005644;28;20222;-72
2023/07/16 04:15:22;;;;;;;12.70;9.13;;;22.70;99.90;;;;;;5015079;28;20234;-71
2023/07/16 04:18:11;;;;;;;10.48;9.48;;;22.60;99.90;;;;;;5021795;28;20233;-72
2023/07/16 04:21:01;;;;;;;9.95;8.90;;;22.60;99.90;;;;;;5012732;28;20276;-72
2023/07/16 04:23:50;;;;;;;11.20;9.00;;;22.70;99.90;;;;;;5012855;28;20308;-73
2023/07/16 04:26:38;;;;;;;9.65;8.77;;;22.80;99.90;;;;;;5018266;28;20233;-71
2023/07/16 04:29:27;;;;;;;12.05;8.82;;;22.80;99.90;;;;;;5011630;28;20293;-72
2023/07/16 04:32:17;;;;;;;10.18;9.20;;;22.90;99.90;;;;;;5013145;28;20221;-72
2023/07/16 04:35:06;;;;;;;10.05;8.50;;;22.90;99.90;;;;;;4999181;28;20222;-72
2023/07/16 04:37:57;;;;;;;9.55;8.60;;;23.00;99.90;;;;;;5015545;28;20229;-72
2023/07/16 04:40:45;;;;;;;10.15;9.13;;;23.20;99.90;;;;;;5018571;28;20229;-72
2023/07/16 04:43:34;;;;;;;10.77;9.68;;;23.30;99.90;;;;;;5024707;28;20721;-71
2023/07/16 04:46:23;;;;;;;10.30;9.30;;;23.30;99.90;;;;;;5022634;28;20694;-71
2023/07/16 04:49:12;;;;;;;10.70;9.15;;;23.30;99.90;;;;;;5007508;28;20229;-71
2023/07/16 04:52:05;;;;;;;12.00;10.00;;;23.30;99.90;;;;;;5018017;28;20723;-71
2023/07/16 04:54:55;;;;;;;9.52;8.60;;;23.40;99.90;;;;;;5017311;28;20328;-72
2023/07/16 04:57:44;;;;;;;11.95;8.75;;;23.60;99.90;;;;;;5020579;28;20226;-71
2023/07/16 05:00:33;;;;;;;11.32;9.20;;;23.70;99.90;;;;;;5025066;28;20223;-71
2023/07/16 05:03:22;;;;;;;9.88;8.88;;;23.80;99.90;;;;;;5010376;28;20578;-71
2023/07/16 05:06:12;;;;;;;10.68;9.60;;;23.80;99.90;;;;;;5025244;28;20225;-71
2023/07/16 05:09:02;;;;;;;11.50;9.43;;;24.00;99.90;;;;;;5023131;28;20304;-71
2023/07/16 05:11:55;;;;;;;10.85;9.55;;;24.00;99.90;;;;;;5003556;28;20253;-71
2023/07/16 05:14:46;;;;;;;10.07;9.10;;;24.00;99.90;;;;;;5022963;28;20297;-70
2023/07/16 05:17:34;;;;;;;11.88;9.18;;;24.20;99.90;;;;;;5020759;28;20581;-72
2023/07/16 05:20:23;;;;;;;11.50;9.43;;;24.40;99.90;;;;;;5019824;28;20217;-72
2023/07/16 05:23:12;;;;;;;10.57;9.25;;;24.60;99.90;;;;;;5023347;28;20224;-71
2023/07/16 05:26:01;;;;;;;10.00;9.10;;;24.70;99.90;;;;;;5018725;28;20236;-71
2023/07/16 05:28:53;;;;;;;10.63;9.60;;;24.80;99.90;;;;;;5016599;28;20222;-72
2023/07/16 05:31:44;;;;;;;10.07;9.07;;;24.90;99.90;;;;;;5016285;28;20229;-72
2023/07/16 05:34:33;;;;;;;15.85;9.52;;;24.70;99.90;;;;;;5007211;28;20735;-72
2023/07/16 05:37:22;;;;;;;11.57;9.48;;;24.80;99.90;;;;;;5018529;28;20230;-71
2023/07/16 05:40:11;;;;;;;10.15;8.85;;;24.90;99.90;;;;;;5011876;28;20712;-71
2023/07/16 05:43:00;;;;;;;10.40;9.25;;;25.00;99.90;;;;;;5018535;28;20229;-71
2023/07/16 05:45:51;;;;;;;12.02;8.88;;;25.20;99.90;;;;;;5016722;28;20615;-73
2023/07/16 05:48:39;;;;;;;10.30;9.20;;;25.50;99.90;;;;;;5017998;28;20960;-72
2023/07/16 05:51:28;;;;;;;10.60;9.57;;;25.80;99.90;;;;;;5020658;28;20757;-71
2023/07/16 05:54:17;;;;;;;11.98;9.13;;;25.50;99.90;;;;;;5016998;28;20252;-72
2023/07/16 05:57:07;;;;;;;9.85;8.93;;;25.40;99.90;;;;;;5024486;28;20220;-72
2023/07/16 05:59:56;;;;;;;10.10;9.20;;;25.60;99.90;;;;;;5016686;28;20954;-73
2023/07/16 06:02:46;;;;;;;12.57;9.50;;;25.60;99.90;;;;;;5012573;28;20226;-71
2023/07/16 06:05:36;;;;;;;9.40;8.48;;;25.50;99.90;;;;;;5013630;28;21093;-73
2023/07/16 06:08:25;;;;;;;15.13;9.60;;;25.70;99.90;;;;;;5013097;28;20229;-72
2023/07/16 06:11:14;;;;;;;10.02;8.73;;;26.00;99.90;;;;;;5017683;28;20863;-72
2023/07/16 06:14:04;;;;;;;10.45;9.43;;;27.20;99.90;;;;;;5013324;28;20338;-71
2023/07/16 06:16:53;;;;;;;10.70;9.40;;;26.90;99.90;;;;;;5013921;28;20226;-74
2023/07/16 06:19:44;;;;;;;10.45;9.48;;;26.40;99.90;;;;;;5021339;28;20308;-73
2023/07/16 06:22:32;;;;;;;9.90;9.00;;;26.50;99.90;;;;;;5012632;28;20241;-71
2023/07/16 06:25:21;;;;;;;10.10;9.10;;;26.50;99.90;;;;;;5019191;28;20225;-73
2023/07/16 06:28:10;;;;;;;10.10;9.15;;;26.60;99.90;;;;;;4998919;28;20305;-72
2023/07/16 06:30:59;;;;;;;13.07;9.07;;;26.70;99.90;;;;;;5015280;28;20272;-73
2023/07/16 06:33:49;;;;;;;9.15;8.35;;;26.70;99.90;;;;;;5015037;28;20222;-73
2023/07/16 06:36:39;;;;;;;9.93;8.88;;;27.40;99.90;;;;;;5012518;28;20227;-72
2023/07/16 06:39:29;;;;;;;8.60;7.80;;;29.20;99.90;;;;;;5017750;28;20889;-72
2023/07/16 06:42:18;;;;;;;9.52;8.57;;;31.10;99.90;;;;;;5033533;28;20263;-70
2023/07/16 06:45:08;;;;;;;9.50;8.65;;;30.70;99.90;;;;;;5023330;28;20237;-71
2023/07/16 06:47:57;;;;;;;10.63;8.10;;;29.50;99.90;;;;;;5019043;28;20221;-71
2023/07/16 06:50:46;;;;;;;9.60;8.27;;;29.00;99.90;;;;;;5016580;28;20233;-71
2023/07/16 06:53:36;;;;;;;8.85;7.82;;;28.80;99.90;;;;;;5019404;28;20259;-72
2023/07/16 06:56:25;;;;;;;10.82;8.40;;;28.60;99.90;;;;;;5004082;28;20229;-72
2023/07/16 06:59:14;;;;;;;13.30;8.35;;;28.50;99.90;;;;;;5016643;28;20233;-72
2023/07/16 07:02:04;;;;;;;9.45;8.65;;;28.40;99.90;;;;;;5023032;28;20490;-72
2023/07/16 07:04:53;;;;;;;9.63;8.70;;;28.30;99.90;;;;;;5026605;28;20228;-73
2023/07/16 07:07:44;;;;;;;9.40;8.25;;;28.30;99.90;;;;;;5017591;28;20225;-72
2023/07/16 07:10:37;;;;;;;9.07;8.07;;;28.40;99.90;;;;;;5023677;28;20233;-72
2023/07/16 07:13:26;;;;;;;9.35;7.80;;;28.60;99.90;;;;;;5023261;28;20311;-72
2023/07/16 07:16:15;;;;;;;10.02;7.40;;;28.80;99.90;;;;;;5020187;28;20221;-72
2023/07/16 07:19:05;;;;;;;8.50;7.18;;;29.00;99.90;;;;;;5006835;28;20230;-73
2023/07/16 07:21:53;;;;;;;11.05;7.32;;;29.10;99.90;;;;;;5016393;28;20229;-73
2023/07/16 07:24:44;;;;;;;11.50;7.72;;;29.30;99.90;;;;;;5006924;28;20228;-72
2023/07/16 07:27:34;;;;;;;9.20;7.18;;;29.60;99.90;;;;;;5024303;28;20604;-74
2023/07/16 07:30:23;;;;;;;8.55;7.60;;;30.00;99.90;;;;;;5018102;28;20259;-72
2023/07/16 07:33:12;;;;;;;8.80;7.63;;;30.20;99.90;;;;;;5029207;28;21019;-74
2023/07/16 07:36:01;;;;;;;9.43;7.05;;;30.40;99.90;;;;;;4997901;28;20242;-73
2023/07/16 07:38:50;;;;;;;7.50;6.80;;;30.70;99.40;;;;;;5000733;28;20264;-73
2023/07/16 07:41:39;;;;;;;8.07;7.25;;;31.00;98.40;;;;;;5000241;28;20899;-72
2023/07/16 07:44:29;;;;;;;7.60;6.85;;;31.30;97.60;;;;;;4996910;28;20233;-71
2023/07/16 07:47:18;;;;;;;10.10;7.45;;;31.70;97.20;;;;;;5001854;28;20213;-72
2023/07/16 07:50:08;;;;;;;8.60;7.20;;;31.90;97.00;;;;;;4999578;28;20224;-72
2023/07/16 07:52:57;;;;;;;8.25;7.43;;;32.10;96.60;;;;;;5009034;28;20225;-73
2023/07/16 07:55:46;;;;;;;7.70;7.00;;;32.60;95.80;;;;;;5000155;28;20226;-72
2023/07/16 07:58:35;;;;;;;11.25;7.05;;;33.10;96.30;;;;;;5000266;28;20543;-72
2023/07/16 08:01:26;;;;;;;7.63;6.90;;;33.30;93.90;;;;;;5000211;28;20751;-72
2023/07/16 08:04:18;;;;;;;9.10;6.95;;;33.40;93.30;;;;;;4987513;28;20226;-72
2023/07/16 08:07:07;;;;;;;7.47;6.22;;;33.80;92.70;;;;;;4996056;28;20256;-73
2023/07/16 08:09:56;;;;;;;7.22;6.05;;;34.10;91.80;;;;;;4998576;28;20214;-73
2023/07/16 08:12:45;;;;;;;6.70;6.10;;;34.10;90.90;;;;;;5005622;28;20292;-72
2023/07/16 08:15:34;;;;;;;7.72;6.25;;;34.40;91.20;;;;;;4998282;28;20293;-73
2023/07/16 08:18:24;;;;;;;6.95;6.07;;;34.80;91.50;;;;;;5002716;28;20224;-73
2023/07/16 08:21:19;;;;;;;7.03;6.20;;;34.70;89.70;;;;;;5018576;28;20725;-74
2023/07/16 08:24:09;;;;;;;6.65;5.82;;;35.00;88.70;;;;;;5006384;28;20237;-73
2023/07/16 08:26:58;;;;;;;7.18;5.82;;;35.30;90.20;;;;;;5017171;28;20228;-72
2023/07/16 08:29:47;;;;;;;6.82;5.82;;;35.70;91.00;;;;;;5000460;28;20232;-73
2023/07/16 08:32:36;;;;;;;9.38;5.95;;;35.90;85.30;;;;;;5012085;28;20229;-73
2023/07/16 08:35:26;;;;;;;5.93;5.28;;;36.10;84.90;;;;;;5020796;28;20287;-73
2023/07/16 08:38:15;;;;;;;5.93;5.28;;;36.20;85.60;;;;;;5016925;28;21069;-72
2023/07/16 08:41:04;;;;;;;5.60;5.10;;;36.20;81.60;;;;;;5012380;28;20675;-73
2023/07/16 08:43:53;;;;;;;6.88;5.38;;;36.10;79.70;;;;;;5012778;28;20992;-72
2023/07/16 08:46:42;;;;;;;5.53;4.93;;;36.20;79.00;;;;;;5017871;28;20264;-72
2023/07/16 08:49:32;;;;;;;5.72;4.78;;;36.20;79.60;;;;;;5015561;28;20226;-72
2023/07/16 08:52:23;;;;;;;10.02;5.00;;;36.40;77.70;;;;;;5016404;28;20751;-72
2023/07/16 08:55:11;;;;;;;4.70;4.30;;;36.60;79.30;;;;;;5002259;28;20403;-72
2023/07/16 08:58:02;;;;;;;6.22;5.05;;;36.70;77.20;;;;;;5013971;28;20233;-69
2023/07/16 09:00:52;;;;;;;5.57;4.22;;;36.80;75.50;;;;;;5015104;28;20239;-73
2023/07/16 09:03:41;;;;;;;8.27;4.40;;;37.00;73.20;;;;;;5017943;28;20241;-72
2023/07/16 09:06:30;;;;;;;5.95;5.32;;;37.00;71.80;;;;;;5015914;28;20239;-72
2023/07/16 09:09:24;;;;;;;11.52;4.60;;;37.10;78.50;;;;;;5018793;28;20227;-72
2023/07/16 09:12:13;;;;;;;7.10;4.53;;;37.30;71.20;;;;;;5005689;28;20231;-72
2023/07/16 09:15:04;;;;;;;7.53;4.22;;;37.00;71.00;;;;;;5020128;28;20287;-71
2023/07/16 09:17:55;;;;;;;6.43;4.68;;;37.20;70.20;;;;;;5014587;28;20217;-73
2023/07/16 09:20:44;;;;;;;6.35;4.45;;;37.40;70.10;;;;;;5010643;28;20735;-72
2023/07/16 09:23:34;;;;;;;6.72;4.55;;;37.40;69.60;;;;;;5019974;28;20345;-72
2023/07/16 09:26:24;;;;;;;5.20;4.57;;;37.40;74.40;;;;;;5015768;28;20218;-68
2023/07/16 09:29:13;;;;;;;6.13;4.80;;;37.00;69.70;;;;;;5008005;28;20384;-73
2023/07/16 09:32:03;;;;;;;7.55;4.38;;;37.30;70.80;;;;;;5007480;28;20361;-73
2023/07/16 09:34:54;;;;;;;4.38;3.97;;;37.80;69.90;;;;;;5023086;28;20575;-74
2023/07/16 09:37:43;;;;;;;4.93;4.53;;;37.80;68.60;;;;;;5012615;28;20315;-74
2023/07/16 09:40:32;;;;;;;5.18;4.05;;;38.30;66.10;;;;;;5016183;28;20841;-73
2023/07/16 09:43:23;;;;;;;7.03;4.38;;;38.70;65.90;;;;;;5014681;28;20840;-73
2023/07/16 09:46:12;;;;;;;5.88;5.25;;;39.50;65.30;;;;;;5007833;28;20240;-73
2023/07/16 09:49:02;;;;;;;6.53;5.10;;;39.70;65.30;;;;;;5018639;28;20241;-73
2023/07/16 09:51:55;;;;;;;5.10;4.60;;;40.20;71.30;;;;;;5015564;28;20213;-73
2023/07/16 09:54:47;;;;;;;5.30;4.85;;;41.20;64.10;;;;;;5006279;28;20283;-72
2023/07/16 09:57:39;;;;;;;5.10;4.50;;;41.20;64.40;;;;;;5015662;28;20870;-71
2023/07/16 10:00:31;;;;;;;5.20;4.70;;;41.70;63.20;;;;;;5004265;28;20340;-73
2023/07/16 10:03:20;;;;;;;5.78;4.60;;;39.80;62.40;;;;;;5018761;28;20252;-72
2023/07/16 10:06:09;;;;;;;5.20;4.70;;;38.80;64.20;;;;;;5018619;28;20221;-72
2023/07/16 10:08:58;;;;;;;5.10;4.70;;;40.70;66.50;;;;;;5015735;28;20224;-73
2023/07/16 10:11:47;;;;;;;5.07;4.18;;;41.90;65.40;;;;;;5013641;28;20822;-73
2023/07/16 10:14:41;;;;;;;4.82;4.00;;;42.50;58.60;;;;;;5017957;28;20963;-74
2023/07/16 10:17:32;;;;;;;5.38;4.22;;;41.40;59.00;;;;;;5021401;28;20259;-73
2023/07/16 10:20:30;;;;;;;5.55;4.38;;;41.40;57.50;;;;;;5014233;28;20232;-73
2023/07/16 10:23:20;;;;;;;6.38;4.40;;;40.80;59.30;;;;;;5010749;28;20225;-73
2023/07/16 10:26:11;;;;;;;4.80;4.40;;;41.80;59.70;;;;;;5015662;28;20222;-74
2023/07/16 10:29:03;;;;;;;5.25;4.80;;;40.30;58.70;;;;;;5019761;28;20311;-73
2023/07/16 10:31:52;;;;;;;12.65;5.20;;;38.20;61.40;;;;;;5017684;28;20859;-73
2023/07/16 10:34:43;;;;;;;7.88;4.78;;;37.20;64.50;;;;;;5025126;28;20233;-74
2023/07/16 10:37:33;;;;;;;8.18;5.28;;;36.80;66.20;;;;;;5019643;28;20225;-75
2023/07/16 10:40:22;;;;;;;5.82;5.22;;;36.70;66.20;;;;;;5022168;28;20359;-73
2023/07/16 10:43:11;;;;;;;7.80;5.30;;;36.20;68.40;;;;;;5013584;28;20230;-74
2023/07/16 10:46:00;;;;;;;8.43;5.60;;;35.80;69.70;;;;;;5021460;28;20241;-73
2023/07/16 10:48:49;;;;;;;8.05;5.50;;;35.90;70.60;;;;;;5015141;28;20243;-73
2023/07/16 10:51:39;;;;;;;9.23;6.28;;;35.90;71.50;;;;;;5018014;28;20230;-74
2023/07/16 10:54:28;;;;;;;13.25;6.50;;;36.40;70.30;;;;;;5014120;28;20339;-73
2023/07/16 10:57:19;;;;;;;8.73;6.00;;;36.80;70.90;;;;;;5022561;28;20228;-73
2023/07/16 11:00:12;;;;;;;8.70;6.07;;;36.70;71.00;;;;;;5001915;28;20233;-73
2023/07/16 11:03:01;;;;;;;8.55;6.10;;;36.40;73.00;;;;;;5013946;28;20255;-74
2023/07/16 11:05:50;;;;;;;9.18;6.28;;;39.20;69.00;;;;;;5022196;28;20239;-74
2023/07/16 11:08:40;;;;;;;6.57;5.72;;;42.40;67.10;;;;;;5014221;28;20221;-73
2023/07/16 11:11:30;;;;;;;7.55;5.47;;;44.60;64.20;;;;;;5022158;28;20791;-72
2023/07/16 11:14:19;;;;;;;5.65;4.90;;;46.10;58.30;;;;;;5026565;28;20224;-73
2023/07/16 11:17:12;;;;;;;8.70;5.20;;;46.50;56.10;;;;;;5009846;28;20568;-73
2023/07/16 11:20:02;;;;;;;8.20;5.38;;;47.80;57.80;;;;;;5017230;28;20686;-73
2023/07/16 11:22:51;;;;;;;7.47;5.45;;;47.50;55.80;;;;;;5018193;28;20248;-73
2023/07/16 11:25:47;;;;;;;6.40;4.90;;;44.00;57.00;;;;;;5005261;28;20224;-73
2023/07/16 11:28:39;;;;;;;6.28;5.18;;;42.50;58.50;;;;;;5021301;28;20247;-73
2023/07/16 11:31:29;;;;;;;7.90;5.25;;;41.90;60.70;;;;;;5018545;28;20651;-73
2023/07/16 11:34:20;;;;;;;6.30;5.20;;;42.30;59.90;;;;;;5016818;28;20220;-72
2023/07/16 11:37:12;;;;;;;11.52;5.47;;;41.60;61.80;;;;;;5012180;28;20232;-72
2023/07/16 11:40:03;;;;;;;8.63;5.00;;;41.50;60.90;;;;;;5022756;28;20233;-72
2023/07/16 11:42:54;;;;;;;7.75;5.35;;;43.50;59.10;;;;;;5013110;28;20686;-74
2023/07/16 11:45:49;;;;;;;7.60;5.25;;;42.20;60.40;;;;;;5023165;28;20615;-72
2023/07/16 11:48:38;;;;;;;8.63;4.90;;;40.20;61.40;;;;;;5017142;28;20228;-73
2023/07/16 11:51:27;;;;;;;7.13;4.90;;;40.60;62.00;;;;;;5016763;28;20265;-73
2023/07/16 11:54:16;;;;;;;8.73;5.05;;;41.30;61.10;;;;;;5023964;28;20316;-73
2023/07/16 11:57:05;;;;;;;6.85;5.00;;;40.70;60.10;;;;;;5015538;28;20233;-73
2023/07/16 11:59:56;;;;;;;6.78;5.32;;;40.20;63.30;;;;;;5013012;28;20926;-73
2023/07/16 12:02:50;;;;;;;6.75;5.50;;;41.00;65.00;;;;;;5015445;28;20210;-74
2023/07/16 12:05:40;;;;;;;6.82;5.65;;;43.60;60.50;;;;;;5018579;28;20233;-72
2023/07/16 12:08:41;;;;;;;8.15;5.85;;;41.90;60.70;;;;;;5021834;28;20279;-73
2023/07/16 12:11:37;;;;;;;7.55;5.45;;;40.80;62.40;;;;;;5019661;28;20255;-73
2023/07/16 12:14:26;;;;;;;8.00;5.88;;;40.60;63.20;;;;;;5012182;28;20708;-74
2023/07/16 12:17:16;;;;;;;8.55;5.28;;;44.30;60.10;;;;;;5009963;28;20667;-73
2023/07/16 12:20:07;;;;;;;5.70;5.20;;;46.50;56.00;;;;;;5014301;28;20222;-74
2023/07/16 12:22:55;;;;;;;7.88;5.38;;;46.40;53.90;;;;;;5009811;28;20260;-73
2023/07/16 12:25:45;;;;;;;5.07;4.68;;;47.80;54.60;;;;;;5016403;28;20233;-73
2023/07/16 12:28:34;;;;;;;6.05;4.78;;;49.00;52.50;;;;;;5012211;28;20387;-73
2023/07/16 12:31:23;;;;;;;6.85;4.80;;;48.60;51.50;;;;;;5016957;28;20711;-74
2023/07/16 12:34:13;;;;;;;6.28;4.47;;;48.60;50.90;;;;;;5009310;28;20889;-73
2023/07/16 12:37:02;;;;;;;4.50;4.10;;;51.80;50.50;;;;;;5003483;28;20228;-72
2023/07/16 12:39:51;;;;;;;5.53;4.68;;;53.20;47.00;;;;;;5009951;28;20217;-73
2023/07/16 12:42:40;;;;;;;5.00;4.38;;;54.10;47.30;;;;;;5009320;28;20221;-73
2023/07/16 12:45:29;;;;;;;9.50;4.20;;;54.00;45.40;;;;;;5013837;28;20596;-71
2023/07/16 12:48:18;;;;;;;8.68;3.80;;;54.00;43.50;;;;;;5018764;28;20282;-71
2023/07/16 12:51:08;;;;;;;8.15;3.80;;;52.20;43.30;;;;;;5015136;28;20232;-73
2023/07/16 12:53:57;;;;;;;4.10;3.70;;;49.90;44.50;;;;;;5012331;28;20234;-72
2023/07/16 12:56:46;;;;;;;4.00;3.60;;;46.60;47.80;;;;;;5001472;28;20260;-72
2023/07/16 12:59:34;;;;;;;5.35;4.00;;;43.00;50.70;;;;;;5009508;28;20260;-72
2023/07/16 13:02:23;;;;;;;5.18;3.60;;;41.00;54.00;;;;;;5010781;28;20233;-72
2023/07/16 13:05:12;;;;;;;5.82;3.90;;;39.60;56.50;;;;;;4999354;28;20716;-72
2023/07/16 13:08:03;;;;;;;5.15;4.45;;;38.50;57.50;;;;;;5014934;28;20236;-71
2023/07/16 13:10:52;;;;;;;5.70;4.05;;;37.70;59.20;;;;;;5023472;28;20229;-73
2023/07/16 13:13:42;;;;;;;4.55;4.15;;;36.90;61.80;;;;;;5017868;28;20231;-72
2023/07/16 13:16:31;;;;;;;8.40;4.43;;;36.40;62.80;;;;;;5014970;28;20241;-72
2023/07/16 13:19:20;;;;;;;5.70;4.28;;;36.10;64.30;;;;;;5018202;28;20724;-72
2023/07/16 13:22:09;;;;;;;5.07;3.88;;;35.90;63.90;;;;;;5002786;28;20239;-72
2023/07/16 13:24:59;;;;;;;6.03;4.20;;;35.70;63.90;;;;;;5002762;28;20237;-72
2023/07/16 13:27:48;;;;;;;5.35;4.32;;;35.70;66.00;;;;;;5015142;28;20790;-73
2023/07/16 13:30:37;;;;;;;5.63;3.50;;;35.70;65.00;;;;;;5003756;28;20252;-72
2023/07/16 13:33:26;;;;;;;5.60;3.53;;;35.50;65.20;;;;;;5015691;28;20224;-72
2023/07/16 13:36:15;;;;;;;4.00;3.30;;;35.30;64.90;;;;;;5012227;28;20224;-72
2023/07/16 13:39:05;;;;;;;4.70;3.35;;;35.00;65.40;;;;;;5016281;28;20267;-72
2023/07/16 13:41:56;;;;;;;5.97;4.00;;;34.70;64.40;;;;;;5007380;28;20769;-72
2023/07/16 13:45:01;;;;;;;5.07;3.60;;;34.50;65.50;;;;;;5011804;28;20236;-73
2023/07/16 13:47:52;;;;;;;6.13;3.88;;;34.20;65.00;;;;;;5014995;28;20303;-71
2023/07/16 13:50:41;;;;;;;5.97;3.53;;;34.00;66.40;;;;;;5019125;28;20589;-72
2023/07/16 13:53:30;;;;;;;4.93;3.92;;;33.80;66.60;;;;;;5018056;28;20221;-71
2023/07/16 13:56:19;;;;;;;3.80;3.40;;;33.70;67.60;;;;;;5006486;28;20216;-72
2023/07/16 13:59:10;;;;;;;4.05;3.70;;;33.50;68.70;;;;;;5019396;28;20229;-69
2023/07/16 14:02:04;;;;;;;6.38;4.45;;;33.40;67.30;;;;;;5012024;28;20240;-71
2023/07/16 14:04:56;;;;;;;4.00;3.60;;;33.40;70.10;;;;;;5025334;28;20233;-72
2023/07/16 14:07:45;;;;;;;8.38;3.80;;;33.30;68.70;;;;;;5020783;28;20290;-71
2023/07/16 14:10:34;;;;;;;4.05;3.50;;;33.10;69.30;;;;;;5019497;28;20221;-73
2023/07/16 14:13:23;;;;;;;4.53;3.80;;;33.10;69.70;;;;;;5020261;28;20244;-72
2023/07/16 14:16:13;;;;;;;8.77;4.70;;;33.00;69.40;;;;;;5021682;28;20221;-73
2023/07/16 14:19:03;;;;;;;4.63;4.22;;;33.00;69.90;;;;;;5017870;28;20793;-72
2023/07/16 14:21:55;;;;;;;4.10;3.70;;;33.00;71.00;;;;;;5016225;28;20220;-73
2023/07/16 14:24:44;;;;;;;4.43;4.03;;;32.90;70.20;;;;;;5019324;28;20236;-72
2023/07/16 14:27:32;;;;;;;6.43;3.75;;;32.80;69.60;;;;;;5021664;28;20321;-72
2023/07/16 14:30:21;;;;;;;6.00;3.80;;;32.80;70.40;;;;;;5019403;28;20235;-71
2023/07/16 14:33:11;;;;;;;5.20;3.60;;;32.80;70.80;;;;;;5017148;28;20400;-70
2023/07/16 14:36:00;;;;;;;4.18;3.65;;;32.70;70.30;;;;;;4996832;28;20240;-72
2023/07/16 14:38:49;;;;;;;4.20;3.80;;;32.80;70.90;;;;;;5017964;28;20224;-71
2023/07/16 14:41:38;;;;;;;5.43;3.70;;;32.80;71.00;;;;;;5017747;28;20218;-71